Time;durP1;ratioP1;P1;durP2;ratioP2;P2;SDS_P1;SDS_P2;PMS_P1;PMS_P2;Temp;Humidity;BMP_temperature;BMP_pressure;BME280_temperature;BME280_humidity;BME280_pressure;Samples;Min_cycle;Max_cycle;Signal;HPM_P1;HPM_P2
2021/10/29 00:01:16;;;;;;;18.60;14.35;;;8.80;99.90;;;;;;5050438;28;20487;-80
2021/10/29 00:03:43;;;;;;;20.13;15.00;;;8.80;99.90;;;;;;5048835;28;20658;-81
2021/10/29 00:06:12;;;;;;;21.23;15.27;;;8.80;99.90;;;;;;5043218;28;20224;-81
2021/10/29 00:08:39;;;;;;;26.80;15.70;;;8.80;99.90;;;;;;5041841;28;20441;-81
2021/10/29 00:11:06;;;;;;;21.63;15.25;;;8.80;99.90;;;;;;5042572;28;20207;-81
2021/10/29 00:13:32;;;;;;;20.98;15.07;;;8.80;99.90;;;;;;5042360;28;20236;-82
2021/10/29 00:15:59;;;;;;;19.05;14.90;;;8.80;99.90;;;;;;5041895;28;20213;-82
2021/10/29 00:18:27;;;;;;;18.58;14.07;;;8.80;99.90;;;;;;5042187;28;20232;-81
2021/10/29 00:20:54;;;;;;;21.70;14.30;;;8.90;99.90;;;;;;5041659;28;20217;-83
2021/10/29 00:23:22;;;;;;;16.75;13.25;;;8.80;99.90;;;;;;5041607;28;20267;-82
2021/10/29 00:25:49;;;;;;;21.85;14.20;;;8.60;99.90;;;;;;5041124;28;20205;-82
2021/10/29 00:28:16;;;;;;;20.27;13.88;;;8.50;99.90;;;;;;5042484;28;20213;-81
2021/10/29 00:30:43;;;;;;;22.85;14.63;;;8.40;99.90;;;;;;5047771;28;20629;-82
2021/10/29 00:33:09;;;;;;;17.52;13.73;;;8.40;99.90;;;;;;5042248;28;20307;-82
2021/10/29 00:35:36;;;;;;;19.02;14.75;;;8.40;99.90;;;;;;5040688;28;20213;-84
2021/10/29 00:38:03;;;;;;;22.35;14.95;;;8.30;99.90;;;;;;5040826;28;20243;-83
2021/10/29 00:40:31;;;;;;;20.40;14.63;;;8.40;99.90;;;;;;5051109;28;20258;-81
2021/10/29 00:42:58;;;;;;;17.55;14.02;;;8.40;99.90;;;;;;5062478;22;20233;-78
2021/10/29 00:45:25;;;;;;;19.60;15.80;;;8.50;99.90;;;;;;5063348;28;20193;-79
2021/10/29 00:47:53;;;;;;;19.33;15.43;;;8.50;99.90;;;;;;5061657;28;20477;-79
2021/10/29 00:50:21;;;;;;;21.63;15.43;;;8.60;99.90;;;;;;5061796;28;20734;-79
2021/10/29 00:52:48;;;;;;;19.70;13.40;;;8.50;99.90;;;;;;5062285;28;20707;-80
2021/10/29 00:55:15;;;;;;;19.50;14.07;;;8.40;99.90;;;;;;5061197;28;20459;-80
2021/10/29 00:57:44;;;;;;;17.80;13.93;;;8.40;99.90;;;;;;5059636;28;20207;-80
2021/10/29 01:00:12;;;;;;;23.57;16.47;;;8.40;99.90;;;;;;5059171;28;20676;-78
2021/10/29 01:02:39;;;;;;;20.88;15.30;;;8.40;99.90;;;;;;5071954;28;20533;-79
2021/10/29 01:05:07;;;;;;;20.40;14.77;;;8.50;99.90;;;;;;5064545;28;20243;-79
2021/10/29 01:07:34;;;;;;;21.87;15.67;;;8.50;99.90;;;;;;5060846;28;20216;-79
2021/10/29 01:10:01;;;;;;;24.98;15.82;;;8.50;99.90;;;;;;5059397;28;20545;-79
2021/10/29 01:12:28;;;;;;;21.35;15.63;;;8.50;99.90;;;;;;5062409;28;20220;-80
2021/10/29 01:15:00;;;;;;;20.02;15.07;;;8.60;99.90;;;;;;5059424;28;20238;-78
2021/10/29 01:17:27;;;;;;;20.88;15.60;;;8.60;99.90;;;;;;5059104;28;20287;-79
2021/10/29 01:19:56;;;;;;;18.95;14.52;;;8.50;99.90;;;;;;5068346;28;20220;-80
2021/10/29 01:22:25;;;;;;;20.33;14.33;;;8.40;99.90;;;;;;5073090;28;20208;-79
2021/10/29 01:24:53;;;;;;;22.33;14.53;;;8.50;99.90;;;;;;5063533;28;20485;-80
2021/10/29 01:27:21;;;;;;;20.63;14.20;;;8.40;99.90;;;;;;5057718;28;20465;-78
2021/10/29 01:29:50;;;;;;;24.27;14.55;;;8.40;99.90;;;;;;5057034;28;20298;-78
2021/10/29 01:32:17;;;;;;;22.42;14.57;;;8.40;99.90;;;;;;5058534;28;20330;-78
2021/10/29 01:34:44;;;;;;;19.73;14.75;;;8.40;99.90;;;;;;5058264;28;20232;-78
2021/10/29 01:37:13;;;;;;;18.87;14.80;;;8.40;99.90;;;;;;5060175;28;20209;-78
2021/10/29 01:39:42;;;;;;;21.33;16.23;;;8.40;99.90;;;;;;5058642;28;20439;-77
2021/10/29 01:42:09;;;;;;;20.13;13.98;;;8.40;99.90;;;;;;5057040;28;20222;-78
2021/10/29 01:44:36;;;;;;;21.73;17.10;;;8.30;99.90;;;;;;5057234;28;20231;-78
2021/10/29 01:47:04;;;;;;;23.00;15.88;;;8.00;99.90;;;;;;5056877;28;20290;-78
2021/10/29 01:49:31;;;;;;;20.58;15.80;;;8.20;99.90;;;;;;5057532;28;20289;-78
2021/10/29 01:51:58;;;;;;;22.58;15.98;;;8.10;99.90;;;;;;5062767;28;20578;-78
2021/10/29 01:54:25;;;;;;;20.67;16.48;;;8.20;99.90;;;;;;5060524;28;20236;-78
2021/10/29 01:56:54;;;;;;;22.02;16.13;;;8.30;99.90;;;;;;5056200;28;20215;-78
2021/10/29 01:59:21;;;;;;;21.13;16.02;;;8.30;99.90;;;;;;5057146;28;20208;-78
2021/10/29 02:01:47;;;;;;;23.58;16.00;;;8.10;99.90;;;;;;5058775;28;20222;-78
2021/10/29 02:04:14;;;;;;;23.00;16.65;;;8.10;99.90;;;;;;5056086;28;20235;-77
2021/10/29 02:06:41;;;;;;;19.05;14.65;;;7.80;99.90;;;;;;5056776;28;20262;-77
2021/10/29 02:09:08;;;;;;;22.38;15.77;;;8.20;99.90;;;;;;5056353;28;20216;-77
2021/10/29 02:11:35;;;;;;;23.23;15.45;;;8.20;99.90;;;;;;5056648;28;20216;-78
2021/10/29 02:14:03;;;;;;;21.67;14.98;;;8.30;99.90;;;;;;5055743;28;20264;-77
2021/10/29 02:16:30;;;;;;;20.17;15.80;;;8.20;99.90;;;;;;5056558;28;20208;-78
2021/10/29 02:18:57;;;;;;;21.02;16.15;;;8.20;99.90;;;;;;5056282;28;20257;-77
2021/10/29 02:21:24;;;;;;;20.85;14.40;;;7.80;99.90;;;;;;5059595;28;20269;-79
2021/10/29 02:23:51;;;;;;;21.13;15.00;;;7.90;99.90;;;;;;5058676;28;20311;-78
2021/10/29 02:26:18;;;;;;;21.90;14.40;;;8.10;99.90;;;;;;5055762;28;20215;-78
2021/10/29 02:28:45;;;;;;;23.40;15.40;;;8.20;99.90;;;;;;5054272;28;20215;-78
2021/10/29 02:31:13;;;;;;;19.95;13.95;;;8.20;99.90;;;;;;5055295;28;20585;-77
2021/10/29 02:33:41;;;;;;;18.83;14.20;;;8.20;99.90;;;;;;5055326;28;20282;-78
2021/10/29 02:36:08;;;;;;;21.27;14.77;;;8.20;99.90;;;;;;5057395;28;20245;-78
2021/10/29 02:38:35;;;;;;;20.73;15.75;;;8.20;99.90;;;;;;5060043;28;20454;-77
2021/10/29 02:41:02;;;;;;;23.60;14.47;;;8.10;99.90;;;;;;5055588;28;20210;-78
2021/10/29 02:43:30;;;;;;;20.92;15.20;;;7.90;99.90;;;;;;5054824;28;20535;-78
2021/10/29 02:45:57;;;;;;;19.42;14.05;;;8.10;99.90;;;;;;5055335;28;20248;-78
2021/10/29 02:48:25;;;;;;;18.63;13.83;;;8.10;99.90;;;;;;5054867;28;20218;-77
2021/10/29 02:50:52;;;;;;;21.13;13.23;;;7.70;99.90;;;;;;5058034;28;20857;-77
2021/10/29 02:53:19;;;;;;;18.55;13.65;;;8.10;99.90;;;;;;5060736;28;20323;-77
2021/10/29 02:55:46;;;;;;;18.35;13.70;;;7.90;99.90;;;;;;5055266;28;20211;-77
2021/10/29 02:58:13;;;;;;;18.92;14.05;;;7.90;99.90;;;;;;5055035;28;20642;-78
2021/10/29 03:00:39;;;;;;;19.35;12.93;;;7.90;99.90;;;;;;5056004;28;20230;-78
2021/10/29 03:03:07;;;;;;;18.30;12.85;;;7.90;99.90;;;;;;5054997;28;20314;-77
2021/10/29 03:05:37;;;;;;;16.85;12.82;;;7.90;99.90;;;;;;5054896;28;20209;-78
2021/10/29 03:08:05;;;;;;;18.95;12.95;;;7.90;99.90;;;;;;5054817;28;20367;-78
2021/10/29 03:10:32;;;;;;;17.63;13.07;;;7.90;99.90;;;;;;5055764;28;20208;-77
2021/10/29 03:12:59;;;;;;;24.80;13.00;;;7.90;99.90;;;;;;5054996;28;20654;-78
2021/10/29 03:15:26;;;;;;;24.23;15.30;;;7.80;99.90;;;;;;5057159;28;20455;-78
2021/10/29 03:17:53;;;;;;;19.48;14.07;;;7.90;99.90;;;;;;5057256;28;20509;-78
2021/10/29 03:20:20;;;;;;;17.95;13.95;;;7.80;99.90;;;;;;5054590;28;20219;-77
2021/10/29 03:22:48;;;;;;;17.80;12.85;;;7.80;99.90;;;;;;5055429;28;20232;-78
2021/10/29 03:25:15;;;;;;;24.75;12.95;;;7.70;99.90;;;;;;5058692;28;20250;-79
2021/10/29 03:27:42;;;;;;;17.48;12.48;;;7.70;99.90;;;;;;5056157;28;20217;-78
2021/10/29 03:30:10;;;;;;;19.17;14.13;;;7.50;99.90;;;;;;5054416;28;20207;-77
2021/10/29 03:32:37;;;;;;;18.65;13.52;;;7.60;99.90;;;;;;5054745;28;20209;-78
2021/10/29 03:35:05;;;;;;;21.08;12.23;;;7.70;99.90;;;;;;5055022;28;20235;-77
2021/10/29 03:37:55;;;;;;;17.35;11.68;;;7.80;99.90;;;;;;5054639;28;20209;-78
2021/10/29 03:40:32;;;;;;;17.27;11.93;;;7.80;99.90;;;;;;5060700;28;20195;-78
2021/10/29 03:43:05;;;;;;;18.73;13.48;;;7.40;99.90;;;;;;5065780;28;20242;-77
2021/10/29 03:45:37;;;;;;;17.57;12.70;;;7.70;99.90;;;;;;5056368;28;20199;-78
2021/10/29 03:48:06;;;;;;;18.63;12.15;;;7.70;99.90;;;;;;5055800;28;20441;-78
2021/10/29 03:50:36;;;;;;;18.20;13.15;;;7.90;99.90;;;;;;5054533;28;20239;-77
2021/10/29 03:53:07;;;;;;;15.02;12.15;;;7.80;99.90;;;;;;5064611;28;20258;-79
2021/10/29 03:55:38;;;;;;;17.95;12.80;;;7.80;99.90;;;;;;5075368;28;20219;-79
2021/10/29 03:58:05;;;;;;;18.08;12.48;;;7.70;99.90;;;;;;5056540;28;20397;-77
2021/10/29 04:00:32;;;;;;;20.45;12.45;;;7.70;99.90;;;;;;5053844;28;20758;-77
2021/10/29 04:03:01;;;;;;;19.38;14.32;;;7.60;99.90;;;;;;5054350;28;20225;-78
2021/10/29 04:05:28;;;;;;;19.25;13.80;;;7.50;99.90;;;;;;5057772;28;20220;-78
2021/10/29 04:07:55;;;;;;;15.35;12.57;;;7.50;99.90;;;;;;5053875;28;20218;-78
2021/10/29 04:10:26;;;;;;;19.23;13.25;;;7.40;99.90;;;;;;5053817;28;20204;-78
2021/10/29 04:12:58;;;;;;;18.75;12.50;;;7.40;99.90;;;;;;5053688;28;20234;-78
2021/10/29 04:15:25;;;;;;;19.40;14.35;;;7.60;99.90;;;;;;5054213;28;20223;-77
2021/10/29 04:17:52;;;;;;;22.98;13.90;;;7.50;99.90;;;;;;5053346;28;20679;-77
2021/10/29 04:20:19;;;;;;;21.55;14.68;;;7.40;99.90;;;;;;5054166;28;20298;-78
2021/10/29 04:22:46;;;;;;;18.23;14.50;;;7.40;99.90;;;;;;5056054;28;20228;-78
2021/10/29 04:25:16;;;;;;;20.10;15.25;;;7.20;99.90;;;;;;5056013;28;20253;-78
2021/10/29 04:27:45;;;;;;;20.52;14.52;;;7.30;99.90;;;;;;5053935;28;20207;-77
2021/10/29 04:30:17;;;;;;;19.38;14.57;;;7.10;99.90;;;;;;5053689;28;20210;-77
2021/10/29 04:32:44;;;;;;;21.00;14.30;;;7.40;99.90;;;;;;5054999;28;20235;-77
2021/10/29 04:35:12;;;;;;;20.48;14.50;;;7.50;99.90;;;;;;5054187;28;20709;-78
2021/10/29 04:37:40;;;;;;;23.60;14.27;;;7.60;99.90;;;;;;5053603;28;20207;-77
2021/10/29 04:40:09;;;;;;;18.58;14.10;;;7.30;99.90;;;;;;5062303;28;20271;-77
2021/10/29 04:42:36;;;;;;;18.23;13.73;;;7.20;99.90;;;;;;5058481;28;20238;-77
2021/10/29 04:45:04;;;;;;;20.95;15.32;;;7.30;99.90;;;;;;5054056;28;20192;-77
2021/10/29 04:47:32;;;;;;;24.33;15.00;;;7.40;99.90;;;;;;5055449;28;20236;-78
2021/10/29 04:49:59;;;;;;;18.77;14.88;;;7.10;99.90;;;;;;5055046;28;20207;-78
2021/10/29 04:52:26;;;;;;;21.38;15.13;;;7.40;99.90;;;;;;5057041;28;20265;-78
2021/10/29 04:54:53;;;;;;;21.48;14.65;;;7.30;99.90;;;;;;5058054;28;20250;-79
2021/10/29 04:57:20;;;;;;;19.60;14.23;;;7.20;99.90;;;;;;5065020;28;20218;-78
2021/10/29 04:59:47;;;;;;;23.02;15.02;;;7.50;99.90;;;;;;5067361;28;20294;-78
2021/10/29 05:02:14;;;;;;;22.73;15.13;;;7.30;99.90;;;;;;5058066;28;20680;-78
2021/10/29 05:04:42;;;;;;;19.75;14.57;;;7.20;99.90;;;;;;5057329;28;20230;-78
2021/10/29 05:07:09;;;;;;;19.95;14.40;;;7.20;99.90;;;;;;5058530;28;20299;-78
2021/10/29 05:09:36;;;;;;;21.35;16.17;;;7.30;99.90;;;;;;5058591;28;20297;-77
2021/10/29 05:12:03;;;;;;;22.92;15.00;;;7.10;99.90;;;;;;5056886;28;20762;-78
2021/10/29 05:14:30;;;;;;;22.17;15.95;;;7.10;99.90;;;;;;5057640;28;20231;-77
2021/10/29 05:16:56;;;;;;;22.60;15.55;;;7.20;99.90;;;;;;5058600;28;20208;-77
2021/10/29 05:19:23;;;;;;;26.30;16.58;;;7.30;99.90;;;;;;5056509;28;20213;-78
2021/10/29 05:21:51;;;;;;;23.50;14.80;;;7.40;99.90;;;;;;5056296;28;20204;-77
2021/10/29 05:24:18;;;;;;;24.52;16.15;;;7.10;99.90;;;;;;5056405;28;20224;-77
2021/10/29 05:26:45;;;;;;;19.85;15.10;;;7.40;99.90;;;;;;5056488;28;20295;-78
2021/10/29 05:29:12;;;;;;;23.80;15.20;;;7.60;99.90;;;;;;5056089;28;20302;-78
2021/10/29 05:31:39;;;;;;;24.50;15.23;;;7.40;99.90;;;;;;5056153;28;20215;-77
2021/10/29 05:34:06;;;;;;;24.15;15.20;;;7.60;99.90;;;;;;5055693;28;20238;-77
2021/10/29 05:36:35;;;;;;;21.40;15.40;;;7.40;99.90;;;;;;5056292;28;20209;-76
2021/10/29 05:39:04;;;;;;;21.23;14.80;;;7.30;99.90;;;;;;5061872;28;20294;-78
2021/10/29 05:41:31;;;;;;;21.60;14.48;;;7.30;99.90;;;;;;5058717;28;20450;-78
2021/10/29 05:43:59;;;;;;;24.02;15.23;;;7.20;99.90;;;;;;5062164;28;20306;-78
2021/10/29 05:46:30;;;;;;;21.55;16.50;;;7.20;99.90;;;;;;5062058;28;20219;-78
2021/10/29 05:48:57;;;;;;;23.00;16.33;;;7.00;99.90;;;;;;5058501;28;20190;-78
2021/10/29 05:51:24;;;;;;;23.45;16.88;;;7.30;99.90;;;;;;5056878;28;20649;-77
2021/10/29 05:54:08;;;;;;;22.70;15.40;;;7.10;99.90;;;;;;5055837;28;20223;-78
2021/10/29 05:56:36;;;;;;;21.38;15.38;;;7.00;99.90;;;;;;5057616;28;20212;-78
2021/10/29 05:59:05;;;;;;;25.60;17.27;;;7.10;99.90;;;;;;5058301;28;20207;-78
2021/10/29 06:01:32;;;;;;;20.70;15.35;;;7.20;99.90;;;;;;5058422;28;20211;-78
2021/10/29 06:03:59;;;;;;;23.75;15.45;;;7.30;99.90;;;;;;5057280;28;20227;-78
2021/10/29 06:06:29;;;;;;;23.77;16.75;;;7.10;99.90;;;;;;5057871;28;20296;-78
2021/10/29 06:08:56;;;;;;;21.25;16.13;;;7.30;99.90;;;;;;5058344;28;20759;-78
2021/10/29 06:11:26;;;;;;;24.00;15.15;;;7.00;99.90;;;;;;5064088;28;20734;-78
2021/10/29 06:13:55;;;;;;;19.83;15.68;;;7.30;99.90;;;;;;5066037;28;20258;-78
2021/10/29 06:16:22;;;;;;;20.30;15.02;;;7.30;99.90;;;;;;5069644;28;20212;-78
2021/10/29 06:18:49;;;;;;;22.27;15.57;;;7.30;99.90;;;;;;5062492;28;20706;-78
2021/10/29 06:21:19;;;;;;;23.52;15.90;;;7.30;99.90;;;;;;5057330;28;20218;-77
2021/10/29 06:23:56;;;;;;;20.55;14.50;;;7.40;99.90;;;;;;5056884;28;20234;-78
2021/10/29 06:26:25;;;;;;;21.13;15.50;;;7.30;99.90;;;;;;5058541;28;20640;-76
2021/10/29 06:28:52;;;;;;;22.35;15.07;;;7.40;99.90;;;;;;5067268;28;20206;-78
2021/10/29 06:31:20;;;;;;;18.80;14.02;;;7.60;99.90;;;;;;5062152;28;20214;-78
2021/10/29 06:33:48;;;;;;;21.25;15.65;;;7.60;99.90;;;;;;5057915;28;20236;-78
2021/10/29 06:36:15;;;;;;;24.75;15.40;;;7.50;99.90;;;;;;5056220;28;20226;-78
2021/10/29 06:38:43;;;;;;;21.70;15.95;;;7.50;99.90;;;;;;5055138;28;20207;-77
2021/10/29 06:41:10;;;;;;;22.52;15.40;;;7.80;99.90;;;;;;5057129;28;20318;-78
2021/10/29 06:43:41;;;;;;;26.20;17.58;;;7.70;99.90;;;;;;5056426;28;20240;-79
2021/10/29 06:46:17;;;;;;;26.27;16.52;;;7.50;99.90;;;;;;5057008;28;20196;-78
2021/10/29 06:49:07;;;;;;;23.10;16.30;;;7.50;99.90;;;;;;5058603;28;20197;-83
2021/10/29 07:00:11;;;;;;;22.88;15.65;;;8.00;99.90;;;;;;5000990;28;20306;-78
2021/10/29 07:41:22;;;;;;;18.00;14.23;;;8.80;99.90;;;;;;5054785;28;20427;-77
2021/10/29 07:43:50;;;;;;;20.00;14.98;;;8.80;99.90;;;;;;5054784;28;20591;-78
2021/10/29 07:46:17;;;;;;;19.23;14.60;;;8.80;99.90;;;;;;5055263;28;20601;-77
2021/10/29 07:48:45;;;;;;;20.33;14.85;;;8.90;99.90;;;;;;5059914;28;20277;-78
2021/10/29 07:51:12;;;;;;;20.73;15.30;;;8.90;99.90;;;;;;5060317;28;20277;-77
2021/10/29 07:53:40;;;;;;;18.73;15.33;;;9.10;99.90;;;;;;5055938;28;20561;-77
2021/10/29 07:56:07;;;;;;;24.53;16.17;;;9.20;99.90;;;;;;5056094;28;20506;-79
2021/10/29 07:58:35;;;;;;;20.07;15.53;;;9.20;99.90;;;;;;5055852;28;20440;-78
2021/10/29 08:01:03;;;;;;;22.30;16.57;;;9.40;99.90;;;;;;5055026;28;20456;-78
2021/10/29 08:03:30;;;;;;;24.90;17.20;;;9.40;99.90;;;;;;5058411;28;20900;-78
2021/10/29 08:05:57;;;;;;;23.20;18.00;;;9.40;99.90;;;;;;5057739;28;20535;-78
2021/10/29 08:08:24;;;;;;;18.87;15.40;;;9.50;99.90;;;;;;5055239;28;20430;-78
2021/10/29 08:10:52;;;;;;;23.93;16.83;;;9.60;99.90;;;;;;5056019;28;20842;-78
2021/10/29 08:13:20;;;;;;;20.10;15.17;;;9.60;99.90;;;;;;5055874;28;20507;-79
2021/10/29 08:15:52;;;;;;;18.80;15.17;;;9.70;99.90;;;;;;5060499;28;20958;-79
2021/10/29 08:18:20;;;;;;;20.60;14.53;;;9.70;99.90;;;;;;5060312;28;20448;-79
2021/10/29 08:20:47;;;;;;;21.10;15.03;;;9.80;99.90;;;;;;5056904;28;20473;-80
2021/10/29 08:23:14;;;;;;;20.37;14.90;;;9.90;99.90;;;;;;5056641;28;20501;-78
2021/10/29 08:25:41;;;;;;;20.47;15.37;;;10.00;99.90;;;;;;5059179;28;20442;-79
2021/10/29 08:28:10;;;;;;;22.40;15.17;;;10.00;99.90;;;;;;5060830;28;20538;-80
2021/10/29 08:30:37;;;;;;;18.17;13.23;;;10.20;99.90;;;;;;5061234;28;20433;-79
2021/10/29 08:33:04;;;;;;;19.40;14.70;;;10.40;99.90;;;;;;5062071;28;20560;-79
2021/10/29 08:35:31;;;;;;;19.23;15.57;;;10.50;99.90;;;;;;5060584;28;20567;-79
2021/10/29 08:37:58;;;;;;;18.80;14.97;;;10.70;99.90;;;;;;5059911;28;20490;-78
2021/10/29 08:40:26;;;;;;;23.07;15.17;;;10.90;99.90;;;;;;5060591;28;20457;-80
2021/10/29 08:42:53;;;;;;;19.33;13.57;;;11.00;99.90;;;;;;5059525;28;20517;-79
2021/10/29 08:45:22;;;;;;;18.20;14.20;;;11.00;99.90;;;;;;5059366;28;20403;-78
2021/10/29 08:47:49;;;;;;;18.73;13.60;;;10.70;99.90;;;;;;5064186;28;20443;-80
2021/10/29 08:50:18;;;;;;;18.97;14.13;;;10.70;99.90;;;;;;5059936;28;20894;-77
2021/10/29 08:52:47;;;;;;;20.60;14.83;;;10.70;99.90;;;;;;5068787;28;20504;-79
2021/10/29 08:55:16;;;;;;;23.70;13.73;;;10.70;99.90;;;;;;5071528;28;20557;-79
2021/10/29 08:57:47;;;;;;;21.73;14.83;;;10.80;99.90;;;;;;5072980;28;20928;-79
2021/10/29 09:00:17;;;;;;;21.13;13.13;;;10.80;99.90;;;;;;5063648;28;20435;-81
2021/10/29 09:02:57;;;;;;;18.67;13.87;;;10.80;99.90;;;;;;5066681;28;20484;-80
2021/10/29 09:05:28;;;;;;;20.53;13.53;;;10.80;99.90;;;;;;5062861;28;20410;-80
2021/10/29 09:08:27;;;;;;;21.60;13.90;;;10.80;99.90;;;;;;5062308;28;20501;-81
2021/10/29 09:17:22;;;;;;;18.80;13.47;;;10.90;99.90;;;;;;5025699;28;20443;-79
2021/10/29 09:31:26;;;;;;;21.00;16.33;;;11.00;99.90;;;;;;5064703;28;20379;-79
2021/10/29 09:33:55;;;;;;;20.23;14.50;;;11.10;99.90;;;;;;5070448;28;20446;-79
2021/10/29 09:36:35;;;;;;;16.13;13.97;;;11.10;99.90;;;;;;5065452;28;20458;-79
2021/10/29 09:39:06;;;;;;;19.33;14.03;;;11.20;99.90;;;;;;5064063;28;20443;-80
2021/10/29 09:41:34;;;;;;;19.13;14.20;;;11.30;99.90;;;;;;5063426;28;20448;-79
2021/10/29 09:44:14;;;;;;;18.47;14.60;;;11.40;99.90;;;;;;5063535;28;20579;-79
2021/10/29 09:46:47;;;;;;;19.30;15.23;;;11.40;99.90;;;;;;5063581;28;20854;-80
2021/10/29 09:49:16;;;;;;;25.53;14.90;;;11.60;99.90;;;;;;5064646;28;20523;-81
2021/10/29 09:52:29;;;;;;;19.23;13.50;;;11.70;99.90;;;;;;5062977;28;20434;-84
2021/10/29 09:55:00;;;;;;;23.47;14.57;;;11.90;99.90;;;;;;5061237;28;20480;-77
2021/10/29 09:57:28;;;;;;;22.60;15.17;;;12.00;99.90;;;;;;5059228;28;20415;-78
2021/10/29 09:59:56;;;;;;;21.77;15.27;;;12.00;99.90;;;;;;5058535;28;20476;-79
2021/10/29 10:02:25;;;;;;;19.97;14.47;;;12.20;99.90;;;;;;5058450;28;20423;-78
2021/10/29 10:04:53;;;;;;;19.00;13.83;;;12.40;99.90;;;;;;5061276;28;20568;-76
2021/10/29 10:07:22;;;;;;;20.00;15.37;;;12.60;99.90;;;;;;5064965;28;20430;-79
2021/10/29 10:09:52;;;;;;;18.30;14.13;;;12.70;99.90;;;;;;5059633;28;20886;-78
2021/10/29 10:12:21;;;;;;;23.63;13.80;;;12.70;99.90;;;;;;5059920;28;20423;-78
2021/10/29 10:14:49;;;;;;;17.23;12.60;;;12.60;99.90;;;;;;5058964;28;20491;-79
2021/10/29 10:17:17;;;;;;;17.30;14.30;;;12.70;99.90;;;;;;5060447;28;20485;-79
2021/10/29 10:19:44;;;;;;;16.67;13.77;;;12.90;99.90;;;;;;5057709;28;20792;-78
2021/10/29 10:22:15;;;;;;;21.43;14.70;;;12.80;99.90;;;;;;5060592;28;20495;-78
2021/10/29 10:24:44;;;;;;;18.50;14.80;;;12.90;99.90;;;;;;5063738;28;20468;-78
2021/10/29 10:30:06;;;;;;;20.03;13.60;;;13.00;99.90;;;;;;5057920;28;20472;-78
2021/10/29 10:46:20;;;;;;;17.70;13.77;;;13.50;99.90;;;;;;5039131;28;20416;-80
2021/10/29 10:48:52;;;;;;;17.73;14.47;;;13.70;99.90;;;;;;5038857;28;20504;-82
2021/10/29 10:54:30;;;;;;;17.77;12.83;;;13.80;99.90;;;;;;5038183;28;20465;-81
2021/10/29 10:57:12;;;;;;;15.53;13.77;;;14.00;99.90;;;;;;5042370;28;20572;-81
2021/10/29 10:59:53;;;;;;;16.00;12.30;;;14.10;99.90;;;;;;5041900;28;20434;-82
2021/10/29 11:03:06;;;;;;;15.27;11.60;;;14.30;99.90;;;;;;5040387;28;20444;-82
2021/10/29 11:05:44;;;;;;;14.67;11.73;;;14.40;99.90;;;;;;5040156;28;20431;-82
2021/10/29 11:11:15;;;;;;;16.60;12.90;;;14.50;99.90;;;;;;5045278;28;20463;-82
2021/10/29 11:13:57;;;;;;;19.10;12.70;;;14.60;99.90;;;;;;5040009;28;20401;-79
2021/10/29 11:16:31;;;;;;;13.57;11.30;;;14.60;99.90;;;;;;5039184;28;20551;-83
2021/10/29 11:19:06;;;;;;;18.73;12.43;;;14.70;99.90;;;;;;5039164;28;20462;-82
2021/10/29 11:21:36;;;;;;;14.30;11.80;;;14.80;99.90;;;;;;5043788;28;20431;-82
2021/10/29 11:24:06;;;;;;;13.83;10.33;;;14.90;99.90;;;;;;5045638;28;20480;-82
2021/10/29 11:26:41;;;;;;;13.93;11.23;;;15.00;99.90;;;;;;5041949;28;20981;-82
2021/10/29 11:32:14;;;;;;;14.40;12.00;;;15.20;99.90;;;;;;5003993;28;20464;-83
2021/10/29 11:34:42;;;;;;;18.90;11.53;;;15.30;99.90;;;;;;5042495;28;20471;-83
2021/10/29 11:37:36;;;;;;;20.40;12.83;;;15.20;99.90;;;;;;5042133;28;20878;-84
2021/10/29 11:40:04;;;;;;;17.20;13.70;;;15.30;99.90;;;;;;5048529;28;20438;-82
2021/10/29 11:42:32;;;;;;;16.20;12.90;;;15.20;99.90;;;;;;5043269;28;20465;-82
2021/10/29 11:45:03;;;;;;;17.50;11.90;;;15.20;99.90;;;;;;5038610;28;20424;-82
2021/10/29 11:47:31;;;;;;;18.63;13.73;;;15.30;99.90;;;;;;5038796;28;20500;-81
2021/10/29 11:50:07;;;;;;;14.50;11.83;;;15.20;99.90;;;;;;5047962;28;20432;-81
2021/10/29 11:52:36;;;;;;;15.50;12.13;;;15.40;99.90;;;;;;5050367;28;20416;-80
2021/10/29 11:55:13;;;;;;;17.00;13.20;;;15.40;99.90;;;;;;5043703;28;20533;-80
2021/10/29 11:57:49;;;;;;;14.73;13.10;;;15.40;99.90;;;;;;5043480;28;20836;-82
2021/10/29 12:00:29;;;;;;;15.20;11.90;;;15.40;99.90;;;;;;5043511;28;20449;-81
2021/10/29 12:08:28;;;;;;;13.67;10.60;;;15.70;99.90;;;;;;5037706;28;20465;-81
2021/10/29 12:11:00;;;;;;;15.30;11.20;;;15.70;99.90;;;;;;5042200;28;20424;-82
2021/10/29 12:13:28;;;;;;;14.03;10.63;;;15.80;99.90;;;;;;5045594;28;20883;-80
2021/10/29 12:15:56;;;;;;;20.00;10.37;;;15.90;99.90;;;;;;5042979;28;20863;-81
2021/10/29 12:18:27;;;;;;;13.90;10.30;;;16.00;99.90;;;;;;5040976;28;20454;-82
2021/10/29 12:20:54;;;;;;;14.33;11.40;;;16.00;99.90;;;;;;5041472;28;20409;-81
2021/10/29 12:23:25;;;;;;;11.23;10.00;;;16.00;99.90;;;;;;5041181;28;20525;-81
2021/10/29 12:26:01;;;;;;;13.47;10.77;;;16.00;99.90;;;;;;5041387;28;20473;-80
2021/10/29 12:28:31;;;;;;;14.40;11.07;;;16.00;99.90;;;;;;5040561;28;20430;-82
2021/10/29 12:31:06;;;;;;;11.97;8.60;;;16.10;99.90;;;;;;5041559;28;20448;-79
2021/10/29 12:39:22;;;;;;;8.57;6.30;;;16.10;99.90;;;;;;5051601;28;20422;-84
2021/10/29 13:01:35;;;;;;;8.43;5.60;;;16.70;99.40;;;;;;5044454;28;20423;-83
2021/10/29 13:04:07;;;;;;;7.53;5.80;;;16.70;99.50;;;;;;5043175;28;20432;-83
2021/10/29 13:06:37;;;;;;;10.23;6.90;;;16.70;99.80;;;;;;5043141;28;20441;-84
2021/10/29 13:09:14;;;;;;;8.87;6.73;;;16.70;99.80;;;;;;5045896;28;20456;-84
2021/10/29 13:11:49;;;;;;;9.23;5.80;;;16.80;99.80;;;;;;5047227;28;20895;-83
2021/10/29 13:14:23;;;;;;;8.17;5.90;;;16.80;99.50;;;;;;5047546;28;20431;-83
2021/10/29 13:16:50;;;;;;;7.50;4.80;;;16.90;99.30;;;;;;5047692;28;20486;-87
2021/10/29 13:19:32;;;;;;;7.60;5.53;;;17.00;98.90;;;;;;5049237;28;20470;-85
2021/10/29 13:25:06;;;;;;;9.40;6.73;;;17.00;99.40;;;;;;5037214;28;20484;-86
2021/10/29 13:27:56;;;;;;;8.93;5.60;;;16.90;99.90;;;;;;5051158;28;20436;-85
2021/10/29 13:52:57;;;;;;;10.23;7.40;;;17.10;99.90;;;;;;5051411;28;20425;-86
2021/10/29 14:29:00;;;;;;;14.57;8.33;;;16.90;99.90;;;;;;5042702;28;20435;-82
2021/10/29 14:31:31;;;;;;;10.00;7.37;;;17.00;99.90;;;;;;5044400;28;20469;-82
2021/10/29 14:34:03;;;;;;;10.87;7.77;;;17.00;99.90;;;;;;5044903;28;20525;-82
2021/10/29 14:36:41;;;;;;;10.77;7.50;;;16.90;99.90;;;;;;5046456;28;20498;-83
2021/10/29 14:39:11;;;;;;;10.17;7.13;;;16.90;99.90;;;;;;5045515;28;20443;-81
2021/10/29 14:41:43;;;;;;;10.57;7.97;;;16.90;99.90;;;;;;5044202;28;20911;-82
2021/10/29 14:44:15;;;;;;;11.40;8.20;;;17.00;99.90;;;;;;5047970;28;20458;-81
2021/10/29 14:46:55;;;;;;;11.47;8.43;;;16.90;99.90;;;;;;5053152;28;20533;-82
2021/10/29 14:49:40;;;;;;;12.57;7.23;;;16.90;99.90;;;;;;5044158;28;20416;-81
2021/10/29 15:00:37;;;;;;;13.00;7.60;;;16.70;99.90;;;;;;5050762;28;20426;-80
2021/10/29 15:03:25;;;;;;;10.27;7.83;;;16.40;99.90;;;;;;5043125;28;20435;-82
2021/10/29 15:06:01;;;;;;;9.77;6.90;;;16.40;99.90;;;;;;5041840;28;20432;-82
2021/10/29 15:17:16;;;;;;;13.53;7.70;;;16.30;99.90;;;;;;5041987;28;20474;-81
2021/10/29 15:30:50;;;;;;;11.53;7.93;;;15.70;99.90;;;;;;5041882;28;20901;-81
2021/10/29 15:33:40;;;;;;;10.50;6.93;;;15.80;99.90;;;;;;5042584;28;20409;-81
2021/10/29 15:41:48;;;;;;;10.60;8.40;;;15.70;99.90;;;;;;5044144;28;20920;-82
2021/10/29 15:44:18;;;;;;;9.80;7.80;;;15.70;99.90;;;;;;5047095;28;20434;-82
2021/10/29 15:46:54;;;;;;;14.37;10.60;;;15.70;99.90;;;;;;5042023;28;20556;-81
2021/10/29 15:49:33;;;;;;;14.23;8.53;;;15.70;99.90;;;;;;5041489;28;20520;-81
2021/10/29 15:52:03;;;;;;;11.07;8.73;;;15.60;99.90;;;;;;5041127;28;20442;-81
2021/10/29 15:54:33;;;;;;;12.60;10.00;;;15.60;99.90;;;;;;5041175;28;20431;-81
2021/10/29 15:57:02;;;;;;;12.43;8.60;;;15.50;99.90;;;;;;5041319;28;20975;-82
2021/10/29 15:59:35;;;;;;;12.20;8.47;;;15.40;99.90;;;;;;5041242;28;20439;-81
2021/10/29 16:02:15;;;;;;;15.27;8.37;;;15.40;99.90;;;;;;5051743;28;20472;-80
2021/10/29 16:18:30;;;;;;;11.07;8.00;;;15.00;99.90;;;;;;5031650;28;20452;-81
2021/10/29 16:20:57;;;;;;;15.43;9.37;;;14.90;99.90;;;;;;5041782;28;20431;-80
2021/10/29 16:23:28;;;;;;;13.60;9.20;;;14.90;99.90;;;;;;5041234;28;20509;-81
2021/10/29 16:25:58;;;;;;;12.80;9.53;;;14.80;99.90;;;;;;5041342;28;20516;-82
2021/10/29 16:28:29;;;;;;;13.90;8.03;;;14.80;99.90;;;;;;5041648;28;20435;-81
2021/10/29 16:30:56;;;;;;;13.20;10.43;;;14.70;99.90;;;;;;5045869;28;20425;-81
2021/10/29 16:33:27;;;;;;;12.03;8.30;;;14.70;99.90;;;;;;5053389;28;20509;-82
2021/10/29 16:35:56;;;;;;;15.90;8.77;;;14.60;99.90;;;;;;5046258;28;20432;-82
2021/10/29 16:38:23;;;;;;;12.40;9.83;;;14.60;99.90;;;;;;5079905;22;20471;-81